sensor_id;sensor_type;location;lat;lon;timestamp;pressure;altitude;pressure_sealevel;temperature;humidity
11692;BME280;33659;42.672;23.354;2023-04-01T00:01:27;93500.06;;;14.47;51.62
11692;BME280;33659;42.672;23.354;2023-04-01T00:03:54;93448.53;;;14.10;51.57
11692;BME280;33659;42.672;23.354;2023-04-01T00:06:22;93490.19;;;14.22;51.69
11692;BME280;33659;42.672;23.354;2023-04-01T00:08:49;93492.81;;;14.12;51.77
11692;BME280;33659;42.672;23.354;2023-04-01T00:11:17;93490.53;;;14.06;51.68
11692;BME280;33659;42.672;23.354;2023-04-01T00:13:44;93462.69;;;13.80;52.08
11692;BME280;33659;42.672;23.354;2023-04-01T00:16:11;93497.25;;;14.00;52.09
11692;BME280;33659;42.672;23.354;2023-04-01T00:18:37;93485.63;;;13.94;52.49
11692;BME280;33659;42.672;23.354;2023-04-01T00:21:04;93489.34;;;13.86;52.43
11692;BME280;33659;42.672;23.354;2023-04-01T00:23:31;93497.25;;;13.93;52.08
11692;BME280;33659;42.672;23.354;2023-04-01T00:25:59;93511.88;;;13.98;52.03
11692;BME280;33659;42.672;23.354;2023-04-01T00:28:28;93483.31;;;13.82;52.22
11692;BME280;33659;42.672;23.354;2023-04-01T00:30:55;93501.00;;;13.96;52.37
11692;BME280;33659;42.672;23.354;2023-04-01T00:33:22;93496.09;;;13.87;51.94
11692;BME280;33659;42.672;23.354;2023-04-01T00:35:49;93506.97;;;13.86;52.10
11692;BME280;33659;42.672;23.354;2023-04-01T00:38:16;93479.88;;;13.71;52.32
11692;BME280;33659;42.672;23.354;2023-04-01T00:40:46;93486.53;;;13.47;53.40
11692;BME280;33659;42.672;23.354;2023-04-01T00:43:14;93490.03;;;13.17;54.23
11692;BME280;33659;42.672;23.354;2023-04-01T00:45:46;93489.47;;;12.90;55.25
11692;BME280;33659;42.672;23.354;2023-04-01T00:48:15;93489.47;;;12.46;56.80
11692;BME280;33659;42.672;23.354;2023-04-01T00:50:45;93475.84;;;12.30;57.43
11692;BME280;33659;42.672;23.354;2023-04-01T00:53:16;93439.22;;;11.96;57.27
11692;BME280;33659;42.672;23.354;2023-04-01T00:55:50;93460.69;;;12.09;57.31
11692;BME280;33659;42.672;23.354;2023-04-01T00:58:21;93459.09;;;12.01;57.60
11692;BME280;33659;42.672;23.354;2023-04-01T01:00:52;93434.66;;;11.86;58.61
11692;BME280;33659;42.672;23.354;2023-04-01T01:03:18;93456.72;;;11.88;58.76
11692;BME280;33659;42.672;23.354;2023-04-01T01:06:03;93430.56;;;11.58;59.25
11692;BME280;33659;42.672;23.354;2023-04-01T01:08:43;93442.97;;;11.65;60.29
11692;BME280;33659;42.672;23.354;2023-04-01T01:11:14;93446.59;;;11.53;61.17
11692;BME280;33659;42.672;23.354;2023-04-01T01:13:49;93423.13;;;11.30;61.26
11692;BME280;33659;42.672;23.354;2023-04-01T01:16:26;93431.91;;;11.15;61.49
11692;BME280;33659;42.672;23.354;2023-04-01T01:18:56;93400.34;;;11.01;61.53
11692;BME280;33659;42.672;23.354;2023-04-01T01:21:43;93406.84;;;11.14;60.95
11692;BME280;33659;42.672;23.354;2023-04-01T01:24:22;93429.09;;;11.31;60.56
11692;BME280;33659;42.672;23.354;2023-04-01T01:27:02;93417.09;;;11.26;60.59
11692;BME280;33659;42.672;23.354;2023-04-01T01:32:56;93413.38;;;11.57;59.88
11692;BME280;33659;42.672;23.354;2023-04-01T01:35:30;93417.97;;;11.68;59.74
11692;BME280;33659;42.672;23.354;2023-04-01T01:38:00;93409.38;;;11.67;59.07
11692;BME280;33659;42.672;23.354;2023-04-01T01:40:31;93402.00;;;11.76;58.99
11692;BME280;33659;42.672;23.354;2023-04-01T01:43:02;93377.59;;;11.65;58.15
11692;BME280;33659;42.672;23.354;2023-04-01T01:45:32;93403.69;;;11.91;57.39
11692;BME280;33659;42.672;23.354;2023-04-01T01:48:02;93406.69;;;11.93;57.24
11692;BME280;33659;42.672;23.354;2023-04-01T01:50:32;93407.81;;;11.92;56.78
11692;BME280;33659;42.672;23.354;2023-04-01T01:53:03;93408.03;;;11.80;57.36
11692;BME280;33659;42.672;23.354;2023-04-01T01:55:32;93391.59;;;11.80;56.75
11692;BME280;33659;42.672;23.354;2023-04-01T01:58:00;93383.88;;;11.90;55.94
11692;BME280;33659;42.672;23.354;2023-04-01T02:00:29;93388.84;;;12.03;55.78
11692;BME280;33659;42.672;23.354;2023-04-01T02:02:57;93382.44;;;11.97;55.81
11692;BME280;33659;42.672;23.354;2023-04-01T02:05:26;93358.50;;;11.95;55.16
11692;BME280;33659;42.672;23.354;2023-04-01T02:08:02;93372.50;;;12.13;54.35
11692;BME280;33659;42.672;23.354;2023-04-01T02:10:35;93382.03;;;12.35;53.61
11692;BME280;33659;42.672;23.354;2023-04-01T02:13:08;93372.72;;;12.38;53.92
11692;BME280;33659;42.672;23.354;2023-04-01T02:15:45;93371.38;;;12.58;53.65
11692;BME280;33659;42.672;23.354;2023-04-01T02:18:15;93368.06;;;12.68;53.52
11692;BME280;33659;42.672;23.354;2023-04-01T02:20:43;93354.25;;;12.75;53.41
11692;BME280;33659;42.672;23.354;2023-04-01T02:23:12;93360.41;;;13.04;53.09
11692;BME280;33659;42.672;23.354;2023-04-01T02:25:41;93336.78;;;13.00;52.76
11692;BME280;33659;42.672;23.354;2023-04-01T02:28:10;93362.81;;;13.27;52.37
11692;BME280;33659;42.672;23.354;2023-04-01T02:30:42;93356.84;;;13.37;51.72
11692;BME280;33659;42.672;23.354;2023-04-01T02:33:10;93357.22;;;13.39;51.59
11692;BME280;33659;42.672;23.354;2023-04-01T02:35:37;93344.09;;;13.32;51.73
11692;BME280;33659;42.672;23.354;2023-04-01T02:38:05;93377.91;;;13.55;51.24
11692;BME280;33659;42.672;23.354;2023-04-01T02:40:43;93363.66;;;13.52;51.06
11692;BME280;33659;42.672;23.354;2023-04-01T02:43:11;93376.41;;;13.65;50.63
11692;BME280;33659;42.672;23.354;2023-04-01T02:45:38;93364.06;;;13.62;50.07
11692;BME280;33659;42.672;23.354;2023-04-01T02:48:05;93382.47;;;13.76;49.64
11692;BME280;33659;42.672;23.354;2023-04-01T02:50:32;93374.56;;;13.69;49.52
11692;BME280;33659;42.672;23.354;2023-04-01T02:52:59;93391.47;;;13.75;49.81
11692;BME280;33659;42.672;23.354;2023-04-01T02:55:28;93391.81;;;13.70;51.49
11692;BME280;33659;42.672;23.354;2023-04-01T02:57:56;93386.56;;;13.66;51.38
11692;BME280;33659;42.672;23.354;2023-04-01T03:00:23;93379.78;;;13.62;51.63
11692;BME280;33659;42.672;23.354;2023-04-01T03:02:50;93395.13;;;13.56;52.24
11692;BME280;33659;42.672;23.354;2023-04-01T03:05:17;93390.19;;;13.37;53.66
11692;BME280;33659;42.672;23.354;2023-04-01T03:07:44;93398.06;;;13.33;54.05
11692;BME280;33659;42.672;23.354;2023-04-01T03:10:11;93389.69;;;13.17;54.76
11692;BME280;33659;42.672;23.354;2023-04-01T03:12:38;93365.28;;;13.02;55.00
11692;BME280;33659;42.672;23.354;2023-04-01T03:15:08;93378.78;;;13.08;55.33
11692;BME280;33659;42.672;23.354;2023-04-01T03:17:36;93388.13;;;13.05;56.32
11692;BME280;33659;42.672;23.354;2023-04-01T03:20:03;93394.06;;;12.98;55.99
11692;BME280;33659;42.672;23.354;2023-04-01T03:22:30;93390.25;;;12.85;56.68
11692;BME280;33659;42.672;23.354;2023-04-01T03:24:57;93395.41;;;12.74;57.14
11692;BME280;33659;42.672;23.354;2023-04-01T03:27:23;93406.59;;;12.68;57.31
11692;BME280;33659;42.672;23.354;2023-04-01T03:29:50;93423.34;;;12.56;57.63
11692;BME280;33659;42.672;23.354;2023-04-01T03:32:18;93405.78;;;12.60;57.55
11692;BME280;33659;42.672;23.354;2023-04-01T03:34:45;93417.13;;;12.75;57.41
11692;BME280;33659;42.672;23.354;2023-04-01T03:37:12;93399.53;;;12.72;57.29
11692;BME280;33659;42.672;23.354;2023-04-01T03:39:39;93401.16;;;12.91;56.88
11692;BME280;33659;42.672;23.354;2023-04-01T03:42:06;93398.19;;;12.99;56.77
11692;BME280;33659;42.672;23.354;2023-04-01T03:44:33;93398.31;;;13.17;55.93
11692;BME280;33659;42.672;23.354;2023-04-01T03:47:00;93381.78;;;13.10;55.57
11692;BME280;33659;42.672;23.354;2023-04-01T03:49:30;93385.19;;;13.17;56.07
11692;BME280;33659;42.672;23.354;2023-04-01T03:51:57;93360.81;;;13.13;55.42
11692;BME280;33659;42.672;23.354;2023-04-01T03:54:24;93354.88;;;13.20;55.04
11692;BME280;33659;42.672;23.354;2023-04-01T03:56:51;93333.53;;;13.18;55.39
11692;BME280;33659;42.672;23.354;2023-04-01T03:59:18;93326.78;;;13.17;54.97
11692;BME280;33659;42.672;23.354;2023-04-01T04:01:46;93299.78;;;13.13;54.21
11692;BME280;33659;42.672;23.354;2023-04-01T04:04:13;93294.56;;;13.20;56.13
11692;BME280;33659;42.672;23.354;2023-04-01T04:06:41;93305.03;;;13.13;55.21
11692;BME280;33659;42.672;23.354;2023-04-01T04:09:08;93300.50;;;13.06;56.15
11692;BME280;33659;42.672;23.354;2023-04-01T04:11:35;93301.22;;;12.92;56.76
11692;BME280;33659;42.672;23.354;2023-04-01T04:14:02;93303.84;;;12.96;56.45
11692;BME280;33659;42.672;23.354;2023-04-01T04:16:29;93292.63;;;12.95;56.24
11692;BME280;33659;42.672;23.354;2023-04-01T04:18:56;93287.00;;;13.00;56.39
11692;BME280;33659;42.672;23.354;2023-04-01T04:21:22;93279.50;;;12.88;55.52
11692;BME280;33659;42.672;23.354;2023-04-01T04:23:51;93254.75;;;12.86;54.72
11692;BME280;33659;42.672;23.354;2023-04-01T04:26:18;93255.91;;;12.92;54.56
11692;BME280;33659;42.672;23.354;2023-04-01T04:28:44;93269.47;;;13.12;54.47
11692;BME280;33659;42.672;23.354;2023-04-01T04:31:11;93266.88;;;13.19;54.42
11692;BME280;33659;42.672;23.354;2023-04-01T04:33:38;93241.03;;;13.14;54.58
11692;BME280;33659;42.672;23.354;2023-04-01T04:36:05;93250.41;;;13.15;54.45
11692;BME280;33659;42.672;23.354;2023-04-01T04:38:32;93258.69;;;13.24;54.51
11692;BME280;33659;42.672;23.354;2023-04-01T04:41:00;93263.19;;;13.27;54.03
11692;BME280;33659;42.672;23.354;2023-04-01T04:43:27;93212.88;;;12.96;54.17
11692;BME280;33659;42.672;23.354;2023-04-01T04:45:54;93244.41;;;13.18;54.39
11692;BME280;33659;42.672;23.354;2023-04-01T04:48:21;93235.44;;;13.26;54.60
11692;BME280;33659;42.672;23.354;2023-04-01T04:50:48;93227.97;;;13.21;54.83
11692;BME280;33659;42.672;23.354;2023-04-01T04:53:16;93217.78;;;13.01;55.28
11692;BME280;33659;42.672;23.354;2023-04-01T04:55:43;93194.91;;;12.91;55.22
11692;BME280;33659;42.672;23.354;2023-04-01T04:58:12;93230.13;;;13.05;55.32
11692;BME280;33659;42.672;23.354;2023-04-01T05:00:39;93227.50;;;13.01;55.08
11692;BME280;33659;42.672;23.354;2023-04-01T05:03:06;93219.22;;;12.92;55.28
11692;BME280;33659;42.672;23.354;2023-04-01T05:05:32;93210.22;;;12.86;54.96
11692;BME280;33659;42.672;23.354;2023-04-01T05:07:59;93229.75;;;13.02;54.82
11692;BME280;33659;42.672;23.354;2023-04-01T05:10:26;93223.00;;;12.98;54.81
11692;BME280;33659;42.672;23.354;2023-04-01T05:12:53;93203.13;;;12.93;54.89
11692;BME280;33659;42.672;23.354;2023-04-01T05:15:21;93215.91;;;13.06;54.51
11692;BME280;33659;42.672;23.354;2023-04-01T05:17:48;93205.03;;;13.07;54.36
11692;BME280;33659;42.672;23.354;2023-04-01T05:20:14;93179.56;;;13.00;54.02
11692;BME280;33659;42.672;23.354;2023-04-01T05:22:42;93187.84;;;13.17;53.70
11692;BME280;33659;42.672;23.354;2023-04-01T05:25:09;93194.28;;;13.34;53.31
11692;BME280;33659;42.672;23.354;2023-04-01T05:27:38;93163.50;;;13.06;53.15
11692;BME280;33659;42.672;23.354;2023-04-01T05:30:06;93190.81;;;13.01;54.03
11692;BME280;33659;42.672;23.354;2023-04-01T05:32:39;93188.16;;;12.87;54.28
11692;BME280;33659;42.672;23.354;2023-04-01T05:35:07;93184.41;;;12.88;53.96
11692;BME280;33659;42.672;23.354;2023-04-01T05:37:34;93190.06;;;12.97;53.55
11692;BME280;33659;42.672;23.354;2023-04-01T05:40:01;93197.19;;;13.07;53.10
11692;BME280;33659;42.672;23.354;2023-04-01T05:42:28;93194.97;;;13.09;53.50
11692;BME280;33659;42.672;23.354;2023-04-01T05:44:55;93203.19;;;13.18;53.28
11692;BME280;33659;42.672;23.354;2023-04-01T05:47:24;93198.75;;;13.26;52.88
11692;BME280;33659;42.672;23.354;2023-04-01T05:49:52;93192.03;;;13.39;52.33
11692;BME280;33659;42.672;23.354;2023-04-01T05:52:20;93187.19;;;13.48;51.99
11692;BME280;33659;42.672;23.354;2023-04-01T05:54:47;93181.94;;;13.41;51.94
11692;BME280;33659;42.672;23.354;2023-04-01T05:57:14;93147.09;;;13.37;51.84
11692;BME280;33659;42.672;23.354;2023-04-01T05:59:41;93178.94;;;13.75;51.43
11692;BME280;33659;42.672;23.354;2023-04-01T06:02:08;93191.31;;;13.92;51.09
11692;BME280;33659;42.672;23.354;2023-04-01T06:04:38;93184.91;;;14.11;50.68
11692;BME280;33659;42.672;23.354;2023-04-01T06:07:12;93178.88;;;14.21;50.42
11692;BME280;33659;42.672;23.354;2023-04-01T06:09:39;93171.72;;;14.29;50.01
11692;BME280;33659;42.672;23.354;2023-04-01T06:12:22;93182.22;;;14.50;49.52
11692;BME280;33659;42.672;23.354;2023-04-01T06:15:03;93159.28;;;14.54;48.91
11692;BME280;33659;42.672;23.354;2023-04-01T06:17:45;93166.47;;;14.50;48.56
11692;BME280;33659;42.672;23.354;2023-04-01T06:20:21;93176.53;;;14.70;48.33
11692;BME280;33659;42.672;23.354;2023-04-01T06:23:07;93161.13;;;14.68;48.13
11692;BME280;33659;42.672;23.354;2023-04-01T06:25:47;93158.91;;;14.59;48.28
11692;BME280;33659;42.672;23.354;2023-04-01T06:28:43;93171.28;;;14.59;48.65
11692;BME280;33659;42.672;23.354;2023-04-01T06:31:25;93174.28;;;14.65;48.14
11692;BME280;33659;42.672;23.354;2023-04-01T06:34:06;93170.84;;;14.78;48.03
11692;BME280;33659;42.672;23.354;2023-04-01T06:39:54;93163.34;;;14.77;49.03
11692;BME280;33659;42.672;23.354;2023-04-01T06:42:36;93144.63;;;14.60;49.58
11692;BME280;33659;42.672;23.354;2023-04-01T06:45:18;93152.19;;;14.44;50.89
11692;BME280;33659;42.672;23.354;2023-04-01T06:48:00;93150.69;;;14.36;51.26
11692;BME280;33659;42.672;23.354;2023-04-01T06:50:32;93149.59;;;14.37;51.58
11692;BME280;33659;42.672;23.354;2023-04-01T06:53:06;93136.50;;;14.30;51.98
11692;BME280;33659;42.672;23.354;2023-04-01T06:55:41;93142.88;;;14.22;52.64
11692;BME280;33659;42.672;23.354;2023-04-01T06:58:15;93129.41;;;14.05;53.27
11692;BME280;33659;42.672;23.354;2023-04-01T07:00:46;93121.56;;;13.95;53.88
11692;BME280;33659;42.672;23.354;2023-04-01T07:03:20;93124.56;;;13.93;54.20
11692;BME280;33659;42.672;23.354;2023-04-01T07:05:47;93113.72;;;13.91;54.14
11692;BME280;33659;42.672;23.354;2023-04-01T07:08:17;93135.06;;;14.04;54.24
11692;BME280;33659;42.672;23.354;2023-04-01T07:10:52;93119.31;;;14.04;54.13
11692;BME280;33659;42.672;23.354;2023-04-01T07:13:22;93107.31;;;13.99;53.87
11692;BME280;33659;42.672;23.354;2023-04-01T07:16:08;93128.22;;;14.28;53.82
11692;BME280;33659;42.672;23.354;2023-04-01T07:18:42;93114.69;;;14.36;53.53
11692;BME280;33659;42.672;23.354;2023-04-01T07:21:18;93061.47;;;14.25;53.52
11692;BME280;33659;42.672;23.354;2023-04-01T07:23:47;93090.00;;;14.23;53.51
11692;BME280;33659;42.672;23.354;2023-04-01T07:26:19;93130.41;;;14.58;53.33
11692;BME280;33659;42.672;23.354;2023-04-01T07:28:48;93110.88;;;14.55;53.02
11692;BME280;33659;42.672;23.354;2023-04-01T07:31:22;93102.63;;;14.57;53.09
11692;BME280;33659;42.672;23.354;2023-04-01T07:33:58;93117.97;;;14.66;53.42
11692;BME280;33659;42.672;23.354;2023-04-01T07:36:33;93116.09;;;14.70;53.52
11692;BME280;33659;42.672;23.354;2023-04-01T07:39:08;93122.00;;;14.81;53.52
11692;BME280;33659;42.672;23.354;2023-04-01T07:41:50;93113.06;;;14.71;53.97
11692;BME280;33659;42.672;23.354;2023-04-01T07:44:26;93089.06;;;14.66;54.38
11692;BME280;33659;42.672;23.354;2023-04-01T07:47:07;93104.75;;;14.83;54.54
11692;BME280;33659;42.672;23.354;2023-04-01T07:49:44;93108.94;;;14.70;54.57
11692;BME280;33659;42.672;23.354;2023-04-01T07:52:20;93117.53;;;14.74;54.40
11692;BME280;33659;42.672;23.354;2023-04-01T07:54:55;93092.75;;;14.82;54.36
11692;BME280;33659;42.672;23.354;2023-04-01T07:57:32;93095.38;;;14.79;54.44
11692;BME280;33659;42.672;23.354;2023-04-01T08:00:06;93096.47;;;14.85;54.35
11692;BME280;33659;42.672;23.354;2023-04-01T08:02:44;93089.34;;;14.85;53.96
11692;BME280;33659;42.672;23.354;2023-04-01T08:05:23;93074.03;;;14.70;54.01
11692;BME280;33659;42.672;23.354;2023-04-01T08:08:01;93108.50;;;14.82;54.03
11692;BME280;33659;42.672;23.354;2023-04-01T08:10:37;93103.25;;;14.82;54.19
11692;BME280;33659;42.672;23.354;2023-04-01T08:13:15;93088.94;;;14.94;53.97
11692;BME280;33659;42.672;23.354;2023-04-01T08:15:51;93080.16;;;15.11;53.35
11692;BME280;33659;42.672;23.354;2023-04-01T08:18:28;93057.19;;;15.19;53.03
11692;BME280;33659;42.672;23.354;2023-04-01T08:21:01;93052.63;;;15.27;51.92
11692;BME280;33659;42.672;23.354;2023-04-01T08:23:32;93052.50;;;15.41;51.60
11692;BME280;33659;42.672;23.354;2023-04-01T08:26:04;93047.19;;;15.48;51.10
11692;BME280;33659;42.672;23.354;2023-04-01T08:28:39;93056.03;;;15.68;50.99
11692;BME280;33659;42.672;23.354;2023-04-01T08:31:12;93046.91;;;15.77;50.78
11692;BME280;33659;42.672;23.354;2023-04-01T08:33:42;93004.63;;;15.57;50.41
11692;BME280;33659;42.672;23.354;2023-04-01T08:36:13;93036.94;;;15.95;50.48
11692;BME280;33659;42.672;23.354;2023-04-01T08:38:43;93016.69;;;15.92;50.06
11692;BME280;33659;42.672;23.354;2023-04-01T08:41:36;92974.09;;;15.66;50.16
11692;BME280;33659;42.672;23.354;2023-04-01T08:44:24;93003.13;;;15.93;49.98
11692;BME280;33659;42.672;23.354;2023-04-01T08:47:30;92989.63;;;15.91;49.70
11692;BME280;33659;42.672;23.354;2023-04-01T08:53:06;92986.53;;;15.96;49.55
11692;BME280;33659;42.672;23.354;2023-04-01T08:55:44;92978.41;;;15.84;49.72
11692;BME280;33659;42.672;23.354;2023-04-01T08:58:54;93001.78;;;16.12;49.34
11692;BME280;33659;42.672;23.354;2023-04-01T09:04:29;93003.28;;;16.40;48.55
11692;BME280;33659;42.672;23.354;2023-04-01T09:07:09;92999.47;;;16.45;47.89
11692;BME280;33659;42.672;23.354;2023-04-01T09:13:01;92996.81;;;16.75;47.05
11692;BME280;33659;42.672;23.354;2023-04-01T09:15:50;92989.16;;;16.85;45.92
11692;BME280;33659;42.672;23.354;2023-04-01T09:21:34;92973.28;;;16.88;44.01
11692;BME280;33659;42.672;23.354;2023-04-01T09:24:58;93000.16;;;17.03;43.27
11692;BME280;33659;42.672;23.354;2023-04-01T09:27:35;92991.81;;;17.08;43.04
11692;BME280;33659;42.672;23.354;2023-04-01T09:30:31;92979.25;;;17.16;41.92
11692;BME280;33659;42.672;23.354;2023-04-01T09:33:41;92972.03;;;17.20;41.28
11692;BME280;33659;42.672;23.354;2023-04-01T09:36:21;92961.22;;;17.11;41.52
11692;BME280;33659;42.672;23.354;2023-04-01T09:38:57;92961.84;;;17.18;42.19
11692;BME280;33659;42.672;23.354;2023-04-01T09:41:30;92943.28;;;17.02;42.13
11692;BME280;33659;42.672;23.354;2023-04-01T09:44:04;92959.91;;;17.22;42.58
11692;BME280;33659;42.672;23.354;2023-04-01T09:46:50;92954.16;;;17.27;42.18
11692;BME280;33659;42.672;23.354;2023-04-01T09:49:55;92936.38;;;17.31;42.50
11692;BME280;33659;42.672;23.354;2023-04-01T09:52:31;92937.75;;;17.40;42.12
11692;BME280;33659;42.672;23.354;2023-04-01T09:55:34;92926.03;;;17.41;42.08
11692;BME280;33659;42.672;23.354;2023-04-01T10:01:28;92926.09;;;17.57;41.83
11692;BME280;33659;42.672;23.354;2023-04-01T10:04:23;92913.72;;;17.54;41.91
11692;BME280;33659;42.672;23.354;2023-04-01T10:07:21;92918.78;;;17.45;42.59
11692;BME280;33659;42.672;23.354;2023-04-01T10:10:25;92919.66;;;17.38;42.81
11692;BME280;33659;42.672;23.354;2023-04-01T10:16:41;92906.59;;;17.51;43.40
11692;BME280;33659;42.672;23.354;2023-04-01T10:19:49;92884.28;;;17.36;43.50
11692;BME280;33659;42.672;23.354;2023-04-01T10:22:49;92902.84;;;17.52;43.79
11692;BME280;33659;42.672;23.354;2023-04-01T10:28:38;92892.78;;;17.63;44.12
11692;BME280;33659;42.672;23.354;2023-04-01T10:34:39;92838.56;;;17.22;43.63
11692;BME280;33659;42.672;23.354;2023-04-01T10:37:25;92887.66;;;17.56;44.03
11692;BME280;33659;42.672;23.354;2023-04-01T10:40:30;92885.84;;;17.73;43.67
11692;BME280;33659;42.672;23.354;2023-04-01T10:49:41;92859.50;;;17.69;43.55
11692;BME280;33659;42.672;23.354;2023-04-01T10:52:45;92862.97;;;17.66;43.75
11692;BME280;33659;42.672;23.354;2023-04-01T10:55:50;92869.19;;;17.76;43.59
11692;BME280;33659;42.672;23.354;2023-04-01T10:58:47;92818.91;;;17.43;43.68
11692;BME280;33659;42.672;23.354;2023-04-01T11:05:05;92840.31;;;17.49;44.28
11692;BME280;33659;42.672;23.354;2023-04-01T11:17:17;92836.53;;;17.30;43.76
11692;BME280;33659;42.672;23.354;2023-04-01T11:22:55;92834.34;;;17.05;40.32
11692;BME280;33659;42.672;23.354;2023-04-01T11:25:48;92831.84;;;16.98;42.54
11692;BME280;33659;42.672;23.354;2023-04-01T11:28:26;92862.41;;;16.95;41.75
11692;BME280;33659;42.672;23.354;2023-04-01T11:31:09;92878.56;;;16.97;39.52
11692;BME280;33659;42.672;23.354;2023-04-01T11:33:43;92891.19;;;16.86;40.23
11692;BME280;33659;42.672;23.354;2023-04-01T11:36:20;92967.66;;;16.86;43.12
11692;BME280;33659;42.672;23.354;2023-04-01T11:39:13;92914.91;;;16.63;42.22
11692;BME280;33659;42.672;23.354;2023-04-01T11:41:51;92919.16;;;16.53;43.93
11692;BME280;33659;42.672;23.354;2023-04-01T11:44:25;92936.13;;;16.52;43.71
11692;BME280;33659;42.672;23.354;2023-04-01T11:47:03;93002.56;;;16.40;47.03
11692;BME280;33659;42.672;23.354;2023-04-01T11:49:49;93030.22;;;15.90;50.30
11692;BME280;33659;42.672;23.354;2023-04-01T11:52:27;92963.38;;;15.47;55.75
11692;BME280;33659;42.672;23.354;2023-04-01T11:55:10;93076.09;;;15.00;59.91
11692;BME280;33659;42.672;23.354;2023-04-01T11:57:54;93115.41;;;14.48;64.24
11692;BME280;33659;42.672;23.354;2023-04-01T12:00:58;93115.94;;;13.93;67.43
11692;BME280;33659;42.672;23.354;2023-04-01T12:03:54;93126.09;;;13.59;67.76
11692;BME280;33659;42.672;23.354;2023-04-01T12:06:41;93066.91;;;13.15;68.76
11692;BME280;33659;42.672;23.354;2023-04-01T12:09:16;93103.63;;;13.15;70.80
11692;BME280;33659;42.672;23.354;2023-04-01T12:11:54;93065.41;;;12.99;71.16
11692;BME280;33659;42.672;23.354;2023-04-01T12:14:30;93082.63;;;13.04;72.86
11692;BME280;33659;42.672;23.354;2023-04-01T12:17:08;93072.91;;;13.12;73.07
11692;BME280;33659;42.672;23.354;2023-04-01T12:19:42;93076.66;;;13.25;73.66
11692;BME280;33659;42.672;23.354;2023-04-01T12:22:23;93090.88;;;13.45;73.25
11692;BME280;33659;42.672;23.354;2023-04-01T12:24:57;93081.91;;;13.61;72.10
11692;BME280;33659;42.672;23.354;2023-04-01T12:27:38;93071.38;;;13.75;71.93
11692;BME280;33659;42.672;23.354;2023-04-01T12:30:39;93086.31;;;13.99;72.13
11692;BME280;33659;42.672;23.354;2023-04-01T12:33:30;93088.47;;;14.22;73.43
11692;BME280;33659;42.672;23.354;2023-04-01T12:36:09;93072.31;;;14.34;74.04
11692;BME280;33659;42.672;23.354;2023-04-01T12:38:44;93063.28;;;14.35;73.79
11692;BME280;33659;42.672;23.354;2023-04-01T12:41:22;93082.88;;;14.24;73.77
11692;BME280;33659;42.672;23.354;2023-04-01T12:44:15;93084.78;;;14.09;74.20
11692;BME280;33659;42.672;23.354;2023-04-01T12:47:06;93088.63;;;13.69;73.79
11692;BME280;33659;42.672;23.354;2023-04-01T12:49:55;93081.91;;;13.39;74.13
11692;BME280;33659;42.672;23.354;2023-04-01T12:52:32;93087.91;;;13.29;75.03
11692;BME280;33659;42.672;23.354;2023-04-01T12:55:35;93088.28;;;13.31;75.62
11692;BME280;33659;42.672;23.354;2023-04-01T12:58:25;93082.66;;;13.36;75.61
11692;BME280;33659;42.672;23.354;2023-04-01T13:01:15;93074.81;;;13.36;75.63
11692;BME280;33659;42.672;23.354;2023-04-01T13:04:16;93060.94;;;13.39;75.96
11692;BME280;33659;42.672;23.354;2023-04-01T13:07:10;93047.44;;;13.48;74.91
11692;BME280;33659;42.672;23.354;2023-04-01T13:09:45;93021.97;;;13.41;75.37
11692;BME280;33659;42.672;23.354;2023-04-01T13:12:34;93042.19;;;13.55;75.82
11692;BME280;33659;42.672;23.354;2023-04-01T13:15:23;92998.34;;;13.55;73.64
11692;BME280;33659;42.672;23.354;2023-04-01T13:18:00;92991.88;;;13.92;74.30
11692;BME280;33659;42.672;23.354;2023-04-01T13:20:40;92992.59;;;14.66;72.08
11692;BME280;33659;42.672;23.354;2023-04-01T13:23:17;92991.22;;;15.44;67.96
11692;BME280;33659;42.672;23.354;2023-04-01T13:25:57;92999.03;;;16.23;66.21
11692;BME280;33659;42.672;23.354;2023-04-01T13:28:26;92992.78;;;16.94;64.82
11692;BME280;33659;42.672;23.354;2023-04-01T13:30:59;93002.88;;;17.66;62.36
11692;BME280;33659;42.672;23.354;2023-04-01T13:33:38;92997.63;;;18.06;61.01
11692;BME280;33659;42.672;23.354;2023-04-01T13:36:19;92982.22;;;18.57;59.49
11692;BME280;33659;42.672;23.354;2023-04-01T13:39:05;92970.13;;;18.92;57.13
11692;BME280;33659;42.672;23.354;2023-04-01T13:41:45;92965.88;;;19.11;55.81
11692;BME280;33659;42.672;23.354;2023-04-01T13:44:18;92959.84;;;19.27;52.77
11692;BME280;33659;42.672;23.354;2023-04-01T13:47:13;92942.88;;;19.24;52.14
11692;BME280;33659;42.672;23.354;2023-04-01T13:52:53;92951.16;;;19.55;52.26
11692;BME280;33659;42.672;23.354;2023-04-01T13:55:35;92948.19;;;19.82;50.82
11692;BME280;33659;42.672;23.354;2023-04-01T13:58:31;92943.47;;;20.02;50.80
11692;BME280;33659;42.672;23.354;2023-04-01T14:01:06;92945.53;;;20.24;49.56
11692;BME280;33659;42.672;23.354;2023-04-01T14:03:58;92928.25;;;20.32;48.65
11692;BME280;33659;42.672;23.354;2023-04-01T14:06:51;92927.75;;;20.63;48.51
11692;BME280;33659;42.672;23.354;2023-04-01T14:09:33;92916.78;;;20.61;49.13
11692;BME280;33659;42.672;23.354;2023-04-01T14:12:10;92918.06;;;20.31;50.30
11692;BME280;33659;42.672;23.354;2023-04-01T14:14:54;92922.63;;;20.30;51.29
11692;BME280;33659;42.672;23.354;2023-04-01T14:17:44;92908.66;;;19.75;51.33
11692;BME280;33659;42.672;23.354;2023-04-01T14:20:35;92904.25;;;19.27;52.93
11692;BME280;33659;42.672;23.354;2023-04-01T14:29:22;92890.63;;;17.98;55.46
11692;BME280;33659;42.672;23.354;2023-04-01T14:32:01;92892.22;;;17.75;56.10
11692;BME280;33659;42.672;23.354;2023-04-01T14:34:42;92890.03;;;17.30;56.82
11692;BME280;33659;42.672;23.354;2023-04-01T14:37:23;92884.75;;;17.11;57.85
11692;BME280;33659;42.672;23.354;2023-04-01T14:40:19;92885.63;;;17.24;57.62